Time;durP1;ratioP1;P1;durP2;ratioP2;P2;SDS_P1;SDS_P2;PMS_P1;PMS_P2;Temp;Humidity;BMP_temperature;BMP_pressure;BME280_temperature;BME280_humidity;BME280_pressure;Samples;Min_cycle;Max_cycle;Signal;HPM_P1;HPM_P2
2023/02/07 00:00:08;;;;;;;5.77;2.90;;;2.30;99.90;;;;;;5098079;28;20027;-81
2023/02/07 00:02:34;;;;;;;3.88;2.45;;;2.20;99.90;;;;;;5103021;28;20024;-81
2023/02/07 00:05:00;;;;;;;4.87;2.50;;;2.20;99.90;;;;;;5095465;28;20028;-79
2023/02/07 00:07:26;;;;;;;6.97;2.50;;;2.20;99.90;;;;;;5077486;28;20462;-79
2023/02/07 00:09:51;;;;;;;3.50;2.50;;;2.20;99.90;;;;;;5102665;28;20020;-79
2023/02/07 00:12:17;;;;;;;6.63;3.03;;;2.10;99.90;;;;;;5087690;28;20028;-83
2023/02/07 00:14:43;;;;;;;4.87;2.53;;;2.10;99.90;;;;;;5095329;28;20111;-78
2023/02/07 00:17:08;;;;;;;4.97;3.10;;;2.10;99.90;;;;;;5077278;28;20539;-78
2023/02/07 00:19:34;;;;;;;3.87;2.57;;;2.10;99.90;;;;;;5095039;28;20103;-78
2023/02/07 00:22:00;;;;;;;4.47;2.57;;;2.10;99.90;;;;;;5084962;28;20052;-78
2023/02/07 00:24:25;;;;;;;5.83;3.00;;;2.10;99.90;;;;;;5096973;28;20035;-77
2023/02/07 00:26:51;;;;;;;4.17;2.73;;;2.10;99.90;;;;;;5082809;28;20024;-79
2023/02/07 00:29:18;;;;;;;3.90;2.60;;;2.10;99.90;;;;;;5079273;28;20073;-82
2023/02/07 00:31:44;;;;;;;6.30;2.80;;;2.10;99.90;;;;;;5110192;28;20020;-80
2023/02/07 00:34:10;;;;;;;5.00;3.10;;;2.10;99.90;;;;;;5095194;28;20032;-81
2023/02/07 00:36:37;;;;;;;4.73;3.50;;;2.10;99.90;;;;;;5076446;28;20020;-79
2023/02/07 00:39:10;;;;;;;5.53;2.97;;;2.00;99.90;;;;;;5111620;28;20031;-80
2023/02/07 00:41:36;;;;;;;4.27;2.53;;;2.10;99.90;;;;;;5099073;28;20024;-80
2023/02/07 00:44:02;;;;;;;5.03;2.73;;;2.00;99.90;;;;;;5097708;28;20022;-81
2023/02/07 00:46:27;;;;;;;4.10;2.50;;;2.00;99.90;;;;;;5103908;28;20032;-81
2023/02/07 00:48:53;;;;;;;3.93;2.70;;;2.00;99.90;;;;;;5077606;28;20125;-83
2023/02/07 00:51:19;;;;;;;4.83;3.17;;;2.00;99.90;;;;;;5079288;28;20028;-83
2023/02/07 00:53:46;;;;;;;4.30;2.70;;;1.90;99.90;;;;;;5115879;28;20111;-80
2023/02/07 00:56:13;;;;;;;5.00;2.93;;;1.90;99.90;;;;;;5097647;28;20026;-80
2023/02/07 00:58:38;;;;;;;4.93;2.80;;;1.90;99.90;;;;;;5096898;28;20023;-79
2023/02/07 01:01:04;;;;;;;5.13;3.27;;;1.90;99.90;;;;;;5097108;28;20027;-79
2023/02/07 01:03:31;;;;;;;4.33;3.10;;;1.90;99.90;;;;;;5076839;28;20074;-82
2023/02/07 01:05:56;;;;;;;5.07;3.00;;;1.90;99.90;;;;;;5077534;28;20020;-82
2023/02/07 01:08:22;;;;;;;4.73;3.27;;;1.90;99.90;;;;;;5076627;28;20054;-81
2023/02/07 01:10:48;;;;;;;7.93;3.40;;;1.90;99.90;;;;;;5109105;28;20102;-80
2023/02/07 01:13:15;;;;;;;5.87;3.20;;;1.90;99.90;;;;;;5080023;28;20111;-81
2023/02/07 01:15:45;;;;;;;8.07;3.60;;;1.90;99.90;;;;;;5096366;28;20019;-80
2023/02/07 01:18:11;;;;;;;5.90;3.50;;;1.90;99.90;;;;;;5096953;28;20031;-80
2023/02/07 01:20:38;;;;;;;5.30;3.07;;;1.90;99.90;;;;;;5083047;28;20469;-81
2023/02/07 01:23:04;;;;;;;4.97;3.00;;;1.90;99.90;;;;;;5076491;28;20032;-81
2023/02/07 01:25:30;;;;;;;6.50;3.17;;;1.90;99.90;;;;;;5092360;28;20035;-79
2023/02/07 01:27:56;;;;;;;4.97;3.60;;;1.90;99.90;;;;;;5094132;28;20077;-82
2023/02/07 01:30:22;;;;;;;5.30;3.03;;;1.90;99.90;;;;;;5083902;28;20039;-80
2023/02/07 01:32:48;;;;;;;5.00;2.83;;;1.90;99.90;;;;;;5114579;28;20031;-81
2023/02/07 01:35:14;;;;;;;5.80;3.00;;;1.90;99.90;;;;;;5094830;28;20019;-79
2023/02/07 01:37:39;;;;;;;6.20;3.10;;;1.90;99.90;;;;;;5098132;28;20053;-79
2023/02/07 01:40:06;;;;;;;5.90;2.90;;;1.80;99.90;;;;;;5114313;28;20055;-79
2023/02/07 01:42:31;;;;;;;6.13;3.27;;;1.80;99.90;;;;;;5086750;28;20479;-79
2023/02/07 01:45:00;;;;;;;4.73;3.10;;;1.80;99.90;;;;;;5080843;28;20106;-79
2023/02/07 01:47:27;;;;;;;7.30;2.90;;;1.80;99.90;;;;;;5079136;28;20028;-79
2023/02/07 01:49:56;;;;;;;4.27;2.77;;;1.80;99.90;;;;;;5114237;28;20023;-79
2023/02/07 01:52:35;;;;;;;5.70;3.43;;;1.70;99.90;;;;;;5094803;28;20465;-78
2023/02/07 01:55:06;;;;;;;5.93;3.30;;;1.70;99.90;;;;;;5108700;28;20039;-78
2023/02/07 01:57:32;;;;;;;5.23;3.17;;;1.70;99.90;;;;;;5076280;28;20066;-78
2023/02/07 01:59:58;;;;;;;5.90;2.90;;;1.70;99.90;;;;;;5075764;28;20020;-79
2023/02/07 02:02:29;;;;;;;6.37;3.23;;;1.70;99.90;;;;;;5093631;28;20480;-79
2023/02/07 02:04:56;;;;;;;5.83;3.43;;;1.60;99.90;;;;;;5076261;28;20035;-78
2023/02/07 02:07:22;;;;;;;7.30;3.33;;;1.60;99.90;;;;;;5075493;28;20038;-79
2023/02/07 02:09:48;;;;;;;6.47;3.20;;;1.60;99.90;;;;;;5093742;28;20031;-78
2023/02/07 02:12:35;;;;;;;4.77;2.80;;;1.50;99.90;;;;;;5093544;28;20020;-78
2023/02/07 02:15:16;;;;;;;6.03;3.70;;;1.50;99.90;;;;;;5093790;28;20036;-78
2023/02/07 02:17:48;;;;;;;8.20;3.95;;;1.50;99.90;;;;;;5093297;28;20039;-79
2023/02/07 02:20:40;;;;;;;7.27;3.40;;;1.40;99.90;;;;;;5093638;28;20389;-78
2023/02/07 02:23:40;;;;;;;8.80;3.97;;;1.40;99.90;;;;;;5073445;28;20277;-79
2023/02/07 02:26:28;;;;;;;9.20;4.13;;;1.40;99.90;;;;;;5055797;28;20078;-79
2023/02/07 02:29:33;;;;;;;7.47;3.70;;;1.40;99.90;;;;;;5055946;28;20071;-79
2023/02/07 02:32:23;;;;;;;7.33;3.93;;;1.30;99.90;;;;;;5055704;28;20029;-79
2023/02/07 02:35:21;;;;;;;9.57;4.40;;;1.30;99.90;;;;;;5073657;28;20031;-79
2023/02/07 02:38:00;;;;;;;8.00;4.03;;;1.30;99.90;;;;;;5073206;28;20076;-79
2023/02/07 02:40:39;;;;;;;9.27;4.50;;;1.30;99.90;;;;;;5055047;28;20025;-79
2023/02/07 02:43:27;;;;;;;9.80;4.53;;;1.30;99.90;;;;;;5055761;28;20024;-81
2023/02/07 02:46:01;;;;;;;7.73;4.27;;;1.30;99.90;;;;;;5005444;28;20032;-81
2023/02/07 02:48:29;;;;;;;8.63;4.27;;;1.30;99.90;;;;;;5073142;28;20025;-81
2023/02/07 02:50:56;;;;;;;7.50;4.07;;;1.20;99.90;;;;;;5055285;28;20028;-81
2023/02/07 02:53:22;;;;;;;8.33;4.10;;;1.10;99.90;;;;;;5055402;28;20036;-82
2023/02/07 02:55:50;;;;;;;7.40;4.67;;;1.20;99.90;;;;;;5073621;28;20048;-79
2023/02/07 02:58:32;;;;;;;9.90;4.53;;;1.10;99.90;;;;;;5055682;28;20024;-79
2023/02/07 03:01:36;;;;;;;12.70;4.90;;;1.10;99.90;;;;;;5059345;28;20028;-79
2023/02/07 03:04:51;;;;;;;10.93;5.07;;;1.10;99.90;;;;;;5076071;28;20040;-79
2023/02/07 03:07:41;;;;;;;9.33;4.70;;;1.10;99.90;;;;;;5054539;28;20124;-79
2023/02/07 03:10:23;;;;;;;11.97;5.90;;;1.10;99.90;;;;;;5059354;28;20111;-79
2023/02/07 03:13:02;;;;;;;8.95;5.47;;;1.00;99.90;;;;;;5077311;28;20055;-79
2023/02/07 03:16:17;;;;;;;13.40;5.60;;;1.00;99.90;;;;;;5076666;28;20024;-80
2023/02/07 03:19:17;;;;;;;11.70;5.57;;;1.00;99.90;;;;;;5016185;28;20638;-79
2023/02/07 03:21:46;;;;;;;9.40;5.67;;;0.90;99.90;;;;;;5068737;28;20040;-79
2023/02/07 03:24:33;;;;;;;9.23;5.70;;;0.90;99.90;;;;;;5096801;28;20029;-78
2023/02/07 03:27:02;;;;;;;12.27;6.23;;;0.90;99.90;;;;;;5079470;28;20101;-78
2023/02/07 03:29:30;;;;;;;11.23;6.30;;;0.80;99.90;;;;;;5078634;28;20025;-79
2023/02/07 03:31:58;;;;;;;11.43;6.20;;;0.80;99.90;;;;;;5078676;28;20024;-79
2023/02/07 03:34:40;;;;;;;11.77;5.50;;;0.70;99.90;;;;;;5078550;28;20028;-81
2023/02/07 03:37:14;;;;;;;13.75;6.05;;;0.70;99.90;;;;;;5096739;28;20558;-78
2023/02/07 03:39:40;;;;;;;25.70;12.53;;;0.70;99.90;;;;;;5096459;28;20027;-79
2023/02/07 03:42:15;;;;;;;15.30;7.63;;;0.60;99.90;;;;;;5078760;28;20028;-79
2023/02/07 03:44:41;;;;;;;14.20;7.53;;;0.60;99.90;;;;;;5077892;28;20377;-79
2023/02/07 03:47:07;;;;;;;13.80;6.87;;;0.70;99.90;;;;;;5078306;28;20025;-79
2023/02/07 03:49:33;;;;;;;19.97;9.30;;;0.60;99.90;;;;;;5095747;28;20076;-79
2023/02/07 03:51:59;;;;;;;13.10;7.37;;;0.60;99.90;;;;;;5078100;28;20024;-79
2023/02/07 03:54:24;;;;;;;14.93;6.73;;;0.60;99.90;;;;;;5078090;28;20062;-80
2023/02/07 03:56:50;;;;;;;13.57;6.87;;;0.50;99.90;;;;;;5096091;28;20031;-79
2023/02/07 03:59:15;;;;;;;13.60;6.47;;;0.60;99.90;;;;;;5078682;28;20024;-79
2023/02/07 04:01:41;;;;;;;12.53;6.80;;;0.50;99.90;;;;;;5077876;28;20094;-79
2023/02/07 04:04:10;;;;;;;12.97;6.93;;;0.50;99.90;;;;;;5078681;28;20031;-79
2023/02/07 04:06:37;;;;;;;11.60;6.13;;;0.50;99.90;;;;;;5077371;28;20020;-79
2023/02/07 04:09:03;;;;;;;11.37;6.20;;;0.50;99.90;;;;;;5078527;28;20024;-78
2023/02/07 04:11:29;;;;;;;12.43;6.43;;;0.50;99.90;;;;;;5076688;28;20024;-78
2023/02/07 04:13:54;;;;;;;13.30;7.30;;;0.50;99.90;;;;;;5078138;28;20024;-79
2023/02/07 04:16:20;;;;;;;14.53;7.17;;;0.50;99.90;;;;;;5077836;28;20077;-79
2023/02/07 04:18:45;;;;;;;12.67;6.57;;;0.50;99.90;;;;;;5077143;28;20671;-79
2023/02/07 04:21:11;;;;;;;13.50;6.57;;;0.40;99.90;;;;;;5095297;28;20222;-79
2023/02/07 04:23:37;;;;;;;11.63;6.23;;;0.40;99.90;;;;;;5077514;28;20020;-79
2023/02/07 04:26:02;;;;;;;15.37;6.67;;;0.40;99.90;;;;;;5095636;28;20028;-79
2023/02/07 04:28:28;;;;;;;13.47;7.10;;;0.40;99.90;;;;;;5077670;28;20035;-80
2023/02/07 04:30:55;;;;;;;13.47;6.37;;;0.40;99.90;;;;;;5077788;28;20080;-79
2023/02/07 04:33:21;;;;;;;12.70;6.77;;;0.40;99.90;;;;;;5077880;28;20122;-79
2023/02/07 04:35:58;;;;;;;11.27;6.23;;;0.40;99.90;;;;;;5077468;28;20026;-80
2023/02/07 04:38:24;;;;;;;12.53;6.50;;;0.40;99.90;;;;;;5095214;28;20039;-79
2023/02/07 04:40:50;;;;;;;14.07;7.30;;;0.40;99.90;;;;;;5095313;28;20032;-79
2023/02/07 04:43:16;;;;;;;11.43;6.40;;;0.30;99.90;;;;;;5077601;28;20461;-79
2023/02/07 04:45:42;;;;;;;12.30;6.67;;;0.30;99.90;;;;;;5076769;28;20024;-79
2023/02/07 04:48:07;;;;;;;12.83;6.90;;;0.20;99.90;;;;;;5095498;28;20028;-79
2023/02/07 04:50:33;;;;;;;12.90;7.30;;;0.20;99.90;;;;;;5094409;28;20402;-80
2023/02/07 04:52:58;;;;;;;12.57;6.53;;;0.30;99.90;;;;;;5095204;28;20426;-79
2023/02/07 04:55:24;;;;;;;13.63;6.90;;;0.30;99.90;;;;;;5077486;28;20111;-79
2023/02/07 04:57:49;;;;;;;12.07;6.33;;;0.30;99.90;;;;;;5076931;28;20028;-79
2023/02/07 05:00:16;;;;;;;15.33;7.10;;;0.30;99.90;;;;;;5077286;28;20129;-78
2023/02/07 05:02:43;;;;;;;11.90;6.60;;;0.30;99.90;;;;;;5094434;28;20069;-79
2023/02/07 05:05:08;;;;;;;12.77;6.60;;;0.30;99.90;;;;;;5092089;28;20035;-79
2023/02/07 05:07:34;;;;;;;13.20;6.90;;;0.40;99.90;;;;;;5114858;28;20032;-80
2023/02/07 05:09:59;;;;;;;13.67;7.10;;;0.30;99.90;;;;;;5097266;28;20376;-80
2023/02/07 05:12:25;;;;;;;15.50;7.57;;;0.30;99.90;;;;;;5097609;28;20032;-79
2023/02/07 05:14:51;;;;;;;13.70;6.90;;;0.30;99.90;;;;;;5114809;28;20503;-80
2023/02/07 05:17:16;;;;;;;13.17;7.30;;;0.30;99.90;;;;;;5097003;28;20108;-80
2023/02/07 05:19:42;;;;;;;14.60;7.23;;;0.20;99.90;;;;;;5114837;28;20039;-80
2023/02/07 05:22:07;;;;;;;12.73;6.37;;;0.20;99.90;;;;;;5115034;28;20532;-80
2023/02/07 05:24:33;;;;;;;12.37;7.10;;;0.30;99.90;;;;;;5095396;28;20028;-80
2023/02/07 05:26:58;;;;;;;12.50;7.70;;;0.20;99.90;;;;;;5114592;28;20456;-80
2023/02/07 05:29:24;;;;;;;16.57;7.33;;;0.20;99.90;;;;;;5114690;28;20023;-80
2023/02/07 05:34:34;;;;;;;12.73;7.13;;;0.20;99.90;;;;;;5114206;28;20047;-80
2023/02/07 05:36:59;;;;;;;14.93;7.30;;;0.20;99.90;;;;;;5096940;28;20028;-80
2023/02/07 05:39:25;;;;;;;16.43;8.17;;;0.20;99.90;;;;;;5096640;28;20472;-80
2023/02/07 05:41:51;;;;;;;17.13;8.00;;;0.20;99.90;;;;;;5096374;28;20023;-80
2023/02/07 05:44:16;;;;;;;16.53;8.00;;;0.20;99.90;;;;;;5096397;28;20475;-80
2023/02/07 05:46:42;;;;;;;14.60;7.43;;;0.10;99.90;;;;;;5095801;28;20024;-78
2023/02/07 05:49:07;;;;;;;13.53;7.33;;;0.20;99.90;;;;;;5096199;28;20397;-79
2023/02/07 05:51:33;;;;;;;16.87;7.13;;;0.10;99.90;;;;;;5095284;28;20080;-82
2023/02/07 05:53:58;;;;;;;14.47;7.93;;;0.10;99.90;;;;;;5095830;28;20035;-79
2023/02/07 05:56:24;;;;;;;15.60;8.13;;;0.10;99.90;;;;;;5096020;28;20024;-79
2023/02/07 05:58:50;;;;;;;13.93;7.40;;;0.10;99.90;;;;;;5095067;28;20038;-79
2023/02/07 06:01:15;;;;;;;15.30;7.23;;;0.10;99.90;;;;;;5114129;28;20027;-79
2023/02/07 06:03:41;;;;;;;11.27;6.83;;;0.10;99.90;;;;;;5112991;28;20016;-79
2023/02/07 06:06:06;;;;;;;14.83;7.50;;;0.00;99.90;;;;;;5096165;28;20027;-79
2023/02/07 06:08:32;;;;;;;16.47;7.17;;;0.00;99.90;;;;;;5113962;28;20019;-81
2023/02/07 06:10:57;;;;;;;16.50;7.70;;;0.00;99.90;;;;;;5095441;28;20028;-80
2023/02/07 06:13:23;;;;;;;15.40;7.90;;;0.00;99.90;;;;;;5095843;28;20062;-79
2023/02/07 06:15:49;;;;;;;14.40;7.73;;;0.00;99.90;;;;;;5113207;28;20069;-78
2023/02/07 06:18:14;;;;;;;15.10;7.43;;;-0.10;99.90;;;;;;5095656;28;20020;-78
2023/02/07 06:20:40;;;;;;;18.03;7.63;;;-0.10;99.90;;;;;;5095146;28;20104;-79
2023/02/07 06:23:05;;;;;;;14.13;7.77;;;-0.10;99.90;;;;;;5096025;28;20024;-79
2023/02/07 06:25:31;;;;;;;16.67;8.00;;;-0.10;99.90;;;;;;5096062;28;20034;-79
2023/02/07 06:27:56;;;;;;;16.73;8.20;;;-0.10;99.90;;;;;;5095494;28;20019;-79
2023/02/07 06:30:22;;;;;;;15.27;8.00;;;-0.20;99.90;;;;;;5096373;28;20146;-79
2023/02/07 06:32:48;;;;;;;15.93;7.87;;;-0.20;99.90;;;;;;5095513;28;20027;-80
2023/02/07 06:35:13;;;;;;;16.87;8.03;;;-0.20;99.90;;;;;;5099976;28;20024;-79
2023/02/07 06:37:39;;;;;;;18.23;8.70;;;-0.20;99.90;;;;;;5120196;28;20498;-79
2023/02/07 06:40:06;;;;;;;15.57;8.23;;;-0.20;99.90;;;;;;5102924;28;20030;-79
2023/02/07 06:42:32;;;;;;;15.07;7.80;;;-0.20;99.90;;;;;;5102482;28;20027;-79
2023/02/07 06:44:57;;;;;;;16.60;8.03;;;-0.20;99.90;;;;;;5102449;28;20076;-78
2023/02/07 06:47:23;;;;;;;15.73;8.40;;;-0.20;99.90;;;;;;5102678;28;20032;-78
2023/02/07 06:49:48;;;;;;;16.40;7.97;;;-0.20;99.90;;;;;;5120157;28;20035;-79
2023/02/07 06:52:14;;;;;;;14.77;8.27;;;-0.20;99.90;;;;;;5120465;28;20067;-78
2023/02/07 06:54:40;;;;;;;14.13;8.07;;;-0.20;99.90;;;;;;5101867;28;20097;-78
2023/02/07 06:57:05;;;;;;;18.30;8.40;;;-0.20;99.90;;;;;;5120665;28;20058;-78
2023/02/07 06:59:31;;;;;;;19.87;9.77;;;-0.30;99.90;;;;;;5102536;28;20061;-78
2023/02/07 07:01:59;;;;;;;15.43;8.10;;;-0.30;99.90;;;;;;5102023;28;20058;-78
2023/02/07 07:04:25;;;;;;;18.90;8.37;;;-0.30;99.90;;;;;;5120586;28;20019;-78
2023/02/07 07:06:50;;;;;;;15.57;7.77;;;-0.30;99.90;;;;;;5120097;28;20028;-79
2023/02/07 07:09:16;;;;;;;14.13;7.77;;;-0.30;99.90;;;;;;5121291;28;20034;-79
2023/02/07 07:11:43;;;;;;;15.00;8.17;;;-0.30;99.90;;;;;;5102557;28;20491;-80
2023/02/07 07:14:10;;;;;;;17.83;8.17;;;-0.30;99.90;;;;;;5103202;28;20053;-80
2023/02/07 07:16:36;;;;;;;16.90;8.67;;;-0.30;99.90;;;;;;5102349;28;20048;-81
2023/02/07 07:19:01;;;;;;;20.90;9.23;;;-0.40;99.90;;;;;;5102821;28;20032;-79
2023/02/07 07:21:27;;;;;;;17.43;8.27;;;-0.30;99.90;;;;;;5102332;28;20054;-79
2023/02/07 07:23:53;;;;;;;16.03;7.67;;;-0.30;99.90;;;;;;5120162;28;20512;-79
2023/02/07 07:26:19;;;;;;;17.37;7.97;;;-0.30;99.90;;;;;;5101979;28;20061;-78
2023/02/07 07:28:45;;;;;;;17.27;8.00;;;-0.30;99.90;;;;;;5119567;28;20020;-78
2023/02/07 07:31:12;;;;;;;17.47;8.23;;;-0.30;99.90;;;;;;5101674;28;20027;-78
2023/02/07 07:33:38;;;;;;;17.87;8.70;;;-0.30;99.90;;;;;;5077837;28;20031;-81
2023/02/07 07:36:04;;;;;;;16.23;8.57;;;-0.30;99.90;;;;;;5078978;28;20032;-79
2023/02/07 07:38:31;;;;;;;18.03;8.73;;;-0.30;99.90;;;;;;5082964;28;20032;-79
2023/02/07 07:40:57;;;;;;;17.37;8.47;;;-0.30;99.90;;;;;;5101801;28;20039;-78
2023/02/07 07:43:23;;;;;;;19.93;8.63;;;-0.30;99.90;;;;;;5102175;28;20031;-79
2023/02/07 07:45:53;;;;;;;18.97;8.53;;;-0.20;99.90;;;;;;5100476;28;20384;-79
2023/02/07 07:48:20;;;;;;;16.97;8.43;;;-0.20;99.90;;;;;;5111789;28;20027;-79
2023/02/07 07:50:46;;;;;;;18.07;8.87;;;-0.20;99.90;;;;;;5096017;28;20405;-79
2023/02/07 07:53:11;;;;;;;18.90;9.07;;;-0.20;99.90;;;;;;5110860;28;20042;-79
2023/02/07 07:55:37;;;;;;;18.57;8.30;;;-0.20;99.90;;;;;;5099544;28;20035;-80
2023/02/07 07:58:03;;;;;;;18.30;9.33;;;-0.10;99.90;;;;;;5078351;28;20342;-79
2023/02/07 08:00:28;;;;;;;20.73;9.00;;;-0.10;99.90;;;;;;5078155;28;20051;-79
2023/02/07 08:02:54;;;;;;;18.07;9.03;;;-0.10;99.90;;;;;;5101076;28;20065;-78
2023/02/07 08:05:19;;;;;;;18.97;8.30;;;-0.10;99.90;;;;;;5097874;28;20123;-78
2023/02/07 08:07:45;;;;;;;17.20;8.07;;;-0.10;99.90;;;;;;5115764;28;20024;-79
2023/02/07 08:10:10;;;;;;;17.90;8.73;;;0.00;99.90;;;;;;5111148;28;20020;-79
2023/02/07 08:12:36;;;;;;;20.03;8.07;;;0.00;99.90;;;;;;5078063;28;20036;-78
2023/02/07 08:15:02;;;;;;;16.87;8.80;;;0.00;99.90;;;;;;5094609;28;20020;-79
2023/02/07 08:17:28;;;;;;;17.80;8.20;;;0.00;99.90;;;;;;5077391;28;20062;-78
2023/02/07 08:19:53;;;;;;;15.80;8.33;;;0.00;99.90;;;;;;5083341;28;20034;-79
2023/02/07 08:22:19;;;;;;;14.57;9.03;;;0.10;99.90;;;;;;5079969;28;20051;-78
2023/02/07 08:24:45;;;;;;;19.67;8.80;;;0.10;99.90;;;;;;5083925;28;20021;-78
2023/02/07 08:27:10;;;;;;;15.50;8.17;;;0.10;99.90;;;;;;5075460;28;20021;-78
2023/02/07 08:29:36;;;;;;;16.93;8.40;;;0.10;99.90;;;;;;5075286;28;20086;-79
2023/02/07 08:32:02;;;;;;;17.93;8.43;;;0.10;99.90;;;;;;5090990;28;20452;-79
2023/02/07 08:34:30;;;;;;;19.90;9.10;;;0.20;99.90;;;;;;5073144;28;20029;-78
2023/02/07 08:36:56;;;;;;;16.67;8.23;;;0.20;99.90;;;;;;5089834;28;20460;-78
2023/02/07 08:39:21;;;;;;;16.10;7.77;;;0.20;99.90;;;;;;5094345;28;20119;-78
2023/02/07 08:41:47;;;;;;;16.40;7.83;;;0.20;99.90;;;;;;5094036;28;20443;-79
2023/02/07 08:44:13;;;;;;;18.33;8.43;;;0.20;99.90;;;;;;5094557;28;20031;-79
2023/02/07 08:46:38;;;;;;;15.27;7.97;;;0.20;99.90;;;;;;5093844;28;20027;-78
2023/02/07 08:49:04;;;;;;;15.67;7.73;;;0.30;99.90;;;;;;5094624;28;20028;-79
2023/02/07 08:51:29;;;;;;;17.23;7.67;;;0.30;99.90;;;;;;5094102;28;20050;-79
2023/02/07 08:53:55;;;;;;;17.67;8.90;;;0.30;99.90;;;;;;5090698;28;20063;-79
2023/02/07 08:56:21;;;;;;;17.37;8.43;;;0.30;99.90;;;;;;5087754;28;20044;-79
2023/02/07 08:58:46;;;;;;;15.33;7.13;;;0.30;99.90;;;;;;5083714;28;20094;-80
2023/02/07 09:01:12;;;;;;;13.90;7.40;;;0.40;99.90;;;;;;5093707;28;20034;-80
2023/02/07 09:03:38;;;;;;;14.00;7.33;;;0.40;99.90;;;;;;5093580;28;20028;-79
2023/02/07 09:06:04;;;;;;;16.83;7.67;;;0.40;99.90;;;;;;5090174;28;20486;-79
2023/02/07 09:08:30;;;;;;;16.27;8.20;;;0.50;99.90;;;;;;5092862;28;20310;-79
2023/02/07 09:10:55;;;;;;;15.90;7.63;;;0.50;99.90;;;;;;5092770;28;20556;-79
2023/02/07 09:13:21;;;;;;;13.40;7.27;;;0.60;99.90;;;;;;5078441;28;20024;-78
2023/02/07 09:15:53;;;;;;;14.87;7.80;;;0.60;99.90;;;;;;5073588;28;20056;-79
2023/02/07 09:18:19;;;;;;;12.70;7.10;;;0.60;99.90;;;;;;5089318;28;20086;-79
2023/02/07 09:20:45;;;;;;;14.23;7.30;;;0.60;99.90;;;;;;5090939;28;20032;-80
2023/02/07 09:23:19;;;;;;;13.37;7.30;;;0.70;99.90;;;;;;5114290;28;20059;-78
2023/02/07 09:25:51;;;;;;;12.53;7.03;;;0.70;99.90;;;;;;5113981;28;20103;-79
2023/02/07 09:28:17;;;;;;;10.95;5.18;;;0.80;99.90;;;;;;5096496;28;20020;-76
2023/02/07 09:30:44;;;;;;;13.07;7.33;;;0.80;99.90;;;;;;5095784;28;20385;-79
2023/02/07 09:33:11;;;;;;;15.20;7.00;;;0.80;99.90;;;;;;5087502;28;20074;-78
2023/02/07 09:35:38;;;;;;;12.97;6.80;;;0.80;99.90;;;;;;5076057;28;20024;-78
2023/02/07 09:38:04;;;;;;;15.13;7.03;;;0.90;99.90;;;;;;5095925;28;20024;-78
2023/02/07 09:40:33;;;;;;;16.00;6.00;;;0.90;99.90;;;;;;5095907;28;20058;-78
2023/02/07 09:43:31;;;;;;;15.80;7.47;;;0.90;99.90;;;;;;5113822;28;20412;-78
2023/02/07 09:46:03;;;;;;;11.43;6.43;;;1.00;99.90;;;;;;5037180;28;20400;-78
2023/02/07 09:48:45;;;;;;;17.10;7.13;;;1.10;99.90;;;;;;5075633;28;20043;-78
2023/02/07 09:51:14;;;;;;;12.77;7.00;;;1.10;99.90;;;;;;5088953;28;20035;-78
2023/02/07 09:53:53;;;;;;;14.03;6.53;;;1.10;99.90;;;;;;5094661;28;20371;-80
2023/02/07 09:56:22;;;;;;;11.50;6.20;;;1.10;99.90;;;;;;5098918;28;20012;-79
2023/02/07 09:59:07;;;;;;;15.00;6.80;;;1.20;99.90;;;;;;5113312;28;20461;-79
2023/02/07 10:01:45;;;;;;;12.43;6.10;;;1.20;99.90;;;;;;5095944;28;20052;-78
2023/02/07 10:04:24;;;;;;;11.83;6.20;;;1.20;99.90;;;;;;5114126;28;20036;-78
2023/02/07 10:06:53;;;;;;;10.47;6.10;;;1.30;99.90;;;;;;5095000;28;20068;-79
2023/02/07 10:09:31;;;;;;;15.00;6.40;;;1.30;99.90;;;;;;5080631;28;20469;-78
2023/02/07 10:12:21;;;;;;;12.17;6.80;;;1.40;99.90;;;;;;5109478;28;20028;-78
2023/02/07 10:15:12;;;;;;;10.93;5.47;;;1.40;99.90;;;;;;5074959;28;20024;-79
2023/02/07 10:18:28;;;;;;;13.50;6.43;;;1.40;99.90;;;;;;5092323;28;20028;-78
2023/02/07 10:21:03;;;;;;;15.93;6.60;;;1.50;99.90;;;;;;4990522;28;20050;-78
2023/02/07 10:23:39;;;;;;;12.43;6.20;;;1.50;99.90;;;;;;4975524;28;20031;-78
2023/02/07 10:26:25;;;;;;;11.07;6.23;;;1.60;99.90;;;;;;4990912;28;20515;-78
2023/02/07 10:29:37;;;;;;;14.43;6.13;;;1.60;99.90;;;;;;4990580;28;20029;-78
2023/02/07 10:32:15;;;;;;;11.30;5.57;;;1.60;99.90;;;;;;4932923;29;20040;-78
2023/02/07 10:34:46;;;;;;;10.37;6.20;;;1.60;99.90;;;;;;4925751;29;20122;-81
2023/02/07 10:37:19;;;;;;;15.20;6.22;;;1.70;99.90;;;;;;4961427;28;20034;-79
2023/02/07 10:40:00;;;;;;;10.23;6.07;;;1.70;99.90;;;;;;4991016;28;20038;-79
2023/02/07 10:42:29;;;;;;;13.43;6.40;;;1.70;99.90;;;;;;4975521;28;20027;-79
2023/02/07 10:44:54;;;;;;;16.10;6.47;;;1.70;99.90;;;;;;4990762;28;20030;-79
2023/02/07 10:47:22;;;;;;;15.47;6.30;;;1.80;99.90;;;;;;4991359;28;20444;-78
2023/02/07 10:49:50;;;;;;;10.70;5.93;;;1.80;99.90;;;;;;4990756;28;20080;-79
2023/02/07 10:52:21;;;;;;;13.33;6.30;;;1.80;99.90;;;;;;5059493;28;20082;-79
2023/02/07 10:54:53;;;;;;;12.20;6.75;;;1.90;99.90;;;;;;5082089;28;20535;-79
2023/02/07 10:57:20;;;;;;;13.05;5.95;;;1.90;99.90;;;;;;5068710;28;20024;-79
2023/02/07 10:59:46;;;;;;;11.70;6.27;;;1.90;99.90;;;;;;5057828;28;20029;-80
2023/02/07 11:02:36;;;;;;;17.37;7.53;;;2.00;99.90;;;;;;5071003;28;20086;-82
2023/02/07 11:05:01;;;;;;;14.20;6.70;;;2.00;99.90;;;;;;5077734;28;20544;-82
2023/02/07 11:07:28;;;;;;;12.13;6.60;;;2.10;99.90;;;;;;5072485;28;20024;-78
2023/02/07 11:10:23;;;;;;;13.80;6.90;;;2.20;99.90;;;;;;5065373;28;20028;-79
2023/02/07 11:12:54;;;;;;;10.87;5.70;;;2.20;99.90;;;;;;5047892;28;20433;-79
2023/02/07 11:15:24;;;;;;;11.20;5.83;;;2.20;99.90;;;;;;5066437;28;20028;-77
2023/02/07 11:17:54;;;;;;;10.00;6.00;;;2.30;99.90;;;;;;5082338;28;20046;-83
2023/02/07 11:20:23;;;;;;;13.13;6.70;;;2.30;99.90;;;;;;5072434;28;20017;-81
2023/02/07 11:22:53;;;;;;;11.67;6.80;;;2.30;99.90;;;;;;5085615;28;20520;-81
2023/02/07 11:25:31;;;;;;;13.47;6.63;;;2.30;99.90;;;;;;5097199;28;20028;-83
2023/02/07 11:27:57;;;;;;;11.47;6.63;;;2.40;99.90;;;;;;5095466;28;20035;-79
2023/02/07 11:30:25;;;;;;;13.10;6.07;;;2.40;99.90;;;;;;5088869;28;20123;-79
2023/02/07 11:32:58;;;;;;;11.97;6.73;;;2.40;99.90;;;;;;5088947;28;20056;-80
2023/02/07 11:35:24;;;;;;;12.47;6.53;;;2.50;99.90;;;;;;5095217;28;20115;-79
2023/02/07 11:38:03;;;;;;;13.33;6.40;;;2.60;99.90;;;;;;5095160;28;20550;-79
2023/02/07 11:40:43;;;;;;;13.37;6.97;;;2.60;99.90;;;;;;5084921;28;20123;-80
2023/02/07 11:43:11;;;;;;;12.33;7.13;;;2.70;99.90;;;;;;5075573;28;20016;-79
2023/02/07 11:45:41;;;;;;;12.40;6.43;;;2.80;99.90;;;;;;5075244;28;20111;-79
2023/02/07 11:48:18;;;;;;;10.13;6.53;;;2.90;99.90;;;;;;5087510;28;20104;-79
2023/02/07 11:50:47;;;;;;;14.50;6.57;;;2.90;99.90;;;;;;5078077;28;20034;-77
2023/02/07 11:53:36;;;;;;;15.33;7.17;;;2.90;99.90;;;;;;5096025;28;20028;-78
2023/02/07 11:56:03;;;;;;;12.77;7.30;;;2.90;99.90;;;;;;5069473;28;20044;-78
2023/02/07 11:58:36;;;;;;;13.37;7.00;;;3.00;99.90;;;;;;5080665;28;20024;-79
2023/02/07 12:01:04;;;;;;;12.93;6.67;;;3.00;99.90;;;;;;5075424;28;20233;-78
2023/02/07 12:03:49;;;;;;;12.27;6.53;;;3.00;99.90;;;;;;5090107;28;20044;-86
2023/02/07 12:06:18;;;;;;;14.57;7.00;;;3.10;99.90;;;;;;5085436;28;20024;-81
2023/02/07 12:08:45;;;;;;;14.00;6.80;;;3.10;99.90;;;;;;5075452;28;20049;-81
2023/02/07 12:11:16;;;;;;;12.20;6.80;;;3.10;99.90;;;;;;5080444;28;20398;-79
2023/02/07 12:13:47;;;;;;;14.50;7.55;;;3.30;99.90;;;;;;5080346;28;20032;-83
2023/02/07 12:16:13;;;;;;;11.80;7.00;;;3.40;99.90;;;;;;5091045;28;20088;-80
2023/02/07 12:18:49;;;;;;;11.87;7.10;;;3.60;99.90;;;;;;5074057;28;20029;-79
2023/02/07 12:21:32;;;;;;;15.20;7.07;;;3.70;99.90;;;;;;5081821;28;20040;-79
2023/02/07 12:24:23;;;;;;;15.60;7.30;;;3.90;99.90;;;;;;5095565;28;20053;-80
2023/02/07 12:27:08;;;;;;;13.52;7.18;;;4.20;99.90;;;;;;5083102;28;20060;-79
2023/02/07 12:29:58;;;;;;;12.57;6.80;;;4.40;99.90;;;;;;5090965;28;20059;-80
2023/02/07 12:32:45;;;;;;;13.50;6.90;;;4.60;99.90;;;;;;5094633;28;20047;-81
2023/02/07 12:35:42;;;;;;;14.23;6.40;;;5.00;99.90;;;;;;5097860;28;20491;-78
2023/02/07 12:38:28;;;;;;;13.87;7.37;;;5.30;99.90;;;;;;5099484;28;20043;-80
2023/02/07 12:41:01;;;;;;;13.67;6.93;;;5.60;99.50;;;;;;5096610;28;20031;-77
2023/02/07 12:43:31;;;;;;;15.03;6.63;;;5.80;99.20;;;;;;5087805;28;20393;-80
2023/02/07 12:46:00;;;;;;;10.83;6.30;;;6.00;98.20;;;;;;5108497;28;20016;-78
2023/02/07 12:48:52;;;;;;;11.30;7.00;;;6.10;97.30;;;;;;5098547;28;20035;-78
2023/02/07 12:51:28;;;;;;;13.10;6.87;;;6.20;95.20;;;;;;5102017;28;20075;-81
2023/02/07 12:54:14;;;;;;;10.90;6.40;;;6.40;95.30;;;;;;5095396;28;20069;-81
2023/02/07 12:56:58;;;;;;;12.47;6.43;;;6.80;95.70;;;;;;5076825;28;20086;-83
2023/02/07 12:59:42;;;;;;;11.10;6.80;;;7.30;94.80;;;;;;5095006;28;20027;-78
2023/02/07 13:02:32;;;;;;;12.63;7.27;;;7.70;91.80;;;;;;5080851;28;20032;-84
2023/02/07 13:05:23;;;;;;;10.53;6.10;;;7.90;90.10;;;;;;5093306;28;20024;-81
2023/02/07 13:07:51;;;;;;;11.97;6.50;;;8.40;89.30;;;;;;5094426;28;20020;-81